Time;durP1;ratioP1;P1;durP2;ratioP2;P2;SDS_P1;SDS_P2;PMS_P1;PMS_P2;Temp;Humidity;BMP_temperature;BMP_pressure;BME280_temperature;BME280_humidity;BME280_pressure;Samples;Min_cycle;Max_cycle;Signal;HPM_P1;HPM_P2
2022/12/06 00:01:04;;;;;;;6.90;6.20;;;;;;;4.30;100.00;98327.63;5095525;28;20231;-71
2022/12/06 00:03:31;;;;;;;7.70;6.90;;;;;;;4.30;100.00;98317.13;5095256;28;20594;-72
2022/12/06 00:06:02;;;;;;;9.00;7.23;;;;;;;4.32;100.00;98322.22;5096046;28;20561;-71
2022/12/06 00:08:28;;;;;;;10.90;6.77;;;;;;;4.32;100.00;98319.56;5095091;28;20204;-71
2022/12/06 00:10:54;;;;;;;9.00;7.23;;;;;;;4.29;100.00;98318.09;5094788;28;20257;-71
2022/12/06 00:13:21;;;;;;;8.83;7.40;;;;;;;4.27;100.00;98319.28;5095345;28;20321;-71
2022/12/06 00:15:47;;;;;;;7.30;6.57;;;;;;;4.29;100.00;98319.94;5095330;28;20217;-71
2022/12/06 00:18:13;;;;;;;8.60;7.03;;;;;;;4.30;100.00;98325.00;5095226;28;20204;-71
2022/12/06 00:20:40;;;;;;;7.40;5.83;;;;;;;4.30;100.00;98327.63;5095184;28;20613;-71
2022/12/06 00:23:06;;;;;;;6.90;5.93;;;;;;;4.30;100.00;98330.28;5095006;28;20208;-72
2022/12/06 00:25:35;;;;;;;7.20;6.13;;;;;;;4.40;100.00;98325.63;5095062;28;20235;-71
2022/12/06 00:28:02;;;;;;;7.47;6.60;;;;;;;4.32;100.00;98319.56;5094882;28;20208;-71
2022/12/06 00:30:28;;;;;;;7.80;6.67;;;;;;;4.29;100.00;98314.69;5094740;28;20206;-72
2022/12/06 00:32:55;;;;;;;6.77;6.10;;;;;;;4.25;100.00;98313.38;5094947;28;20280;-71
2022/12/06 00:35:21;;;;;;;7.70;5.90;;;;;;;4.27;100.00;98312.22;5094757;28;20303;-71
2022/12/06 00:37:48;;;;;;;6.60;5.90;;;;;;;4.21;100.00;98310.25;5094915;28;20208;-71
2022/12/06 00:40:14;;;;;;;7.60;5.90;;;;;;;4.15;100.00;98310.13;5095628;28;20208;-72
2022/12/06 00:42:40;;;;;;;7.57;6.23;;;;;;;4.06;100.00;98306.72;5094798;28;20204;-72
2022/12/06 00:45:08;;;;;;;6.80;6.10;;;;;;;4.09;100.00;98298.50;5095201;28;20217;-72
2022/12/06 00:47:34;;;;;;;6.70;5.93;;;;;;;4.05;100.00;98299.00;5094380;28;20203;-71
2022/12/06 00:50:01;;;;;;;6.37;5.77;;;;;;;4.00;100.00;98296.91;5094601;28;20291;-71
2022/12/06 00:52:27;;;;;;;8.13;6.20;;;;;;;3.99;100.00;98304.97;5094151;28;20250;-71
2022/12/06 00:54:53;;;;;;;6.17;5.57;;;;;;;3.95;100.00;98307.13;5094536;28;20207;-71
2022/12/06 00:57:20;;;;;;;7.80;5.73;;;;;;;3.87;100.00;98303.69;5094461;28;20199;-71
2022/12/06 00:59:46;;;;;;;6.40;5.70;;;;;;;3.86;100.00;98308.16;5094157;28;20685;-72
2022/12/06 01:02:12;;;;;;;6.20;5.60;;;;;;;3.87;100.00;98306.31;5094333;28;20226;-71
2022/12/06 01:04:39;;;;;;;7.30;6.13;;;;;;;3.90;100.00;98312.06;5094966;28;20204;-72
2022/12/06 01:07:05;;;;;;;6.03;5.43;;;;;;;3.86;100.00;98304.69;5094248;28;20208;-71
2022/12/06 01:09:31;;;;;;;6.73;5.90;;;;;;;3.83;100.00;98299.75;5093949;28;20218;-72
2022/12/06 01:11:58;;;;;;;6.93;6.07;;;;;;;3.80;100.00;98300.91;5093785;28;20223;-71
2022/12/06 01:14:25;;;;;;;6.53;5.83;;;;;;;3.83;100.00;98297.13;5094213;28;20570;-71
2022/12/06 01:16:51;;;;;;;6.17;5.57;;;;;;;3.87;100.00;98303.69;5093842;28;20214;-71
2022/12/06 01:19:17;;;;;;;7.50;5.73;;;;;;;3.85;100.00;98306.47;5094158;28;20230;-71
2022/12/06 01:21:44;;;;;;;5.77;5.27;;;;;;;3.83;100.00;98308.47;5094036;28;20226;-71
2022/12/06 01:24:10;;;;;;;7.80;5.47;;;;;;;3.88;100.00;98307.97;5094576;28;20204;-71
2022/12/06 01:26:37;;;;;;;7.43;5.80;;;;;;;3.80;100.00;98302.75;5094048;28;20253;-71
2022/12/06 01:29:03;;;;;;;7.23;6.47;;;;;;;3.85;100.00;98306.47;5093673;28;20204;-72
2022/12/06 01:31:31;;;;;;;6.90;6.10;;;;;;;3.86;100.00;98305.50;5093442;28;20234;-71
2022/12/06 01:33:57;;;;;;;7.87;7.07;;;;;;;3.89;100.00;98312.25;5093764;28;20204;-72
2022/12/06 01:36:25;;;;;;;7.03;6.30;;;;;;;3.90;100.00;98306.81;5093802;28;20204;-71
2022/12/06 01:38:56;;;;;;;11.13;8.23;;;;;;;3.92;100.00;98307.44;5093828;28;20316;-72
2022/12/06 01:41:25;;;;;;;12.47;9.10;;;;;;;3.92;100.00;98298.72;5093470;28;20725;-71
2022/12/06 01:43:52;;;;;;;9.93;8.30;;;;;;;3.96;100.00;98297.41;5093487;28;20663;-71
2022/12/06 01:46:36;;;;;;;9.63;8.43;;;;;;;3.92;100.00;98299.56;5093488;28;20663;-71
2022/12/06 01:49:08;;;;;;;11.43;8.30;;;;;;;3.96;100.00;98295.59;5076361;28;20195;-72
2022/12/06 01:51:36;;;;;;;10.27;9.17;;;;;;;3.97;100.00;98291.16;5093301;28;20231;-71
2022/12/06 01:54:06;;;;;;;13.03;10.03;;;;;;;3.97;100.00;98293.81;5093660;28;20204;-71
2022/12/06 01:56:33;;;;;;;9.10;8.20;;;;;;;3.95;100.00;98287.88;5093641;28;20207;-71
2022/12/06 01:59:00;;;;;;;12.17;9.20;;;;;;;3.94;100.00;98294.94;5093629;28;20207;-72
2022/12/06 02:01:29;;;;;;;12.17;9.87;;;;;;;3.96;100.00;98286.88;5093552;28;20216;-71
2022/12/06 02:03:58;;;;;;;11.37;9.07;;;;;;;3.95;100.00;98293.97;5093614;28;20203;-71
2022/12/06 02:06:24;;;;;;;10.57;9.30;;;;;;;3.91;100.00;98292.66;5093546;28;20207;-71
2022/12/06 02:08:53;;;;;;;13.10;10.17;;;;;;;3.95;100.00;98293.13;5093541;28;20210;-72
2022/12/06 02:11:19;;;;;;;13.67;10.00;;;;;;;3.96;100.00;98287.72;5093397;28;20223;-71
2022/12/06 02:13:46;;;;;;;17.30;11.17;;;;;;;3.97;100.00;98288.53;5093495;28;20199;-72
2022/12/06 02:16:44;;;;;;;11.93;10.57;;;;;;;3.99;100.00;98286.53;5075643;28;20550;-72
2022/12/06 02:19:37;;;;;;;14.60;10.60;;;;;;;4.00;100.00;98278.50;5093557;28;20241;-71
2022/12/06 02:22:25;;;;;;;13.73;11.40;;;;;;;3.99;100.00;98282.13;5095418;28;20223;-71
2022/12/06 02:25:00;;;;;;;14.03;11.47;;;;;;;4.00;100.00;98282.91;5097188;28;20657;-71
2022/12/06 02:27:41;;;;;;;14.47;11.93;;;;;;;3.98;100.00;98282.28;5097422;28;20194;-71
2022/12/06 02:30:17;;;;;;;15.43;12.57;;;;;;;3.96;100.00;98274.56;5097130;28;20652;-71
2022/12/06 02:32:53;;;;;;;15.87;12.63;;;;;;;3.99;100.00;98268.13;5097304;28;20294;-71
2022/12/06 02:35:29;;;;;;;15.73;12.27;;;;;;;4.00;100.00;98267.97;5097288;28;20191;-71
2022/12/06 02:38:07;;;;;;;17.50;13.23;;;;;;;3.93;100.00;98269.63;5079237;28;20524;-71
2022/12/06 02:40:41;;;;;;;16.63;13.53;;;;;;;3.96;100.00;98271.09;5097144;28;20192;-71
2022/12/06 02:43:14;;;;;;;15.00;11.50;;;;;;;3.93;100.00;98271.47;5097202;28;20184;-71
2022/12/06 02:45:47;;;;;;;15.80;12.37;;;;;;;3.96;100.00;98268.47;5097133;28;20184;-71
2022/12/06 02:48:16;;;;;;;15.40;12.10;;;;;;;3.99;100.00;98265.50;5097050;28;20198;-72
2022/12/06 02:50:48;;;;;;;15.47;13.00;;;;;;;3.99;100.00;98262.88;5096471;28;20736;-72
2022/12/06 02:53:19;;;;;;;17.27;12.43;;;;;;;3.93;100.00;98258.31;5096910;28;20202;-71
2022/12/06 02:55:46;;;;;;;16.37;12.17;;;;;;;3.94;100.00;98260.75;5079288;28;20192;-72
2022/12/06 02:58:12;;;;;;;15.77;12.47;;;;;;;3.91;100.00;98255.84;5096815;28;20203;-71
2022/12/06 03:00:44;;;;;;;15.57;12.87;;;;;;;3.87;100.00;98265.06;5096403;28;20715;-71
2022/12/06 03:03:33;;;;;;;14.97;12.07;;;;;;;3.87;100.00;98269.50;5096503;28;20536;-71
2022/12/06 03:06:02;;;;;;;15.53;12.73;;;;;;;3.90;100.00;98262.09;5096738;28;20192;-71
2022/12/06 03:08:41;;;;;;;15.67;11.80;;;;;;;3.92;100.00;98265.38;5096330;28;20208;-71
2022/12/06 03:11:08;;;;;;;13.67;11.83;;;;;;;3.90;100.00;98267.38;5096516;28;20252;-72
2022/12/06 03:13:57;;;;;;;16.20;12.37;;;;;;;3.89;100.00;98264.91;5096510;28;20204;-71
2022/12/06 03:16:34;;;;;;;15.97;12.03;;;;;;;3.88;100.00;98258.81;5080889;28;20192;-71
2022/12/06 03:19:13;;;;;;;16.03;12.53;;;;;;;3.88;100.00;98247.50;5096204;28;20192;-71
2022/12/06 03:22:02;;;;;;;13.73;10.70;;;;;;;3.92;100.00;98241.69;5096037;28;20215;-71
2022/12/06 03:24:31;;;;;;;18.27;12.83;;;;;;;3.89;100.00;98247.28;5096392;28;20192;-71
2022/12/06 03:27:01;;;;;;;13.23;11.60;;;;;;;3.87;100.00;98240.56;5096204;28;20203;-71
2022/12/06 03:29:31;;;;;;;12.80;11.27;;;;;;;3.94;100.00;98247.59;5095901;28;20215;-71
2022/12/06 03:32:01;;;;;;;15.20;11.20;;;;;;;3.97;100.00;98242.00;5078312;28;20238;-71
2022/12/06 03:34:37;;;;;;;14.33;11.80;;;;;;;3.98;100.00;98237.56;5095065;28;20192;-71
2022/12/06 03:37:07;;;;;;;15.57;11.67;;;;;;;3.93;100.00;98232.00;5095766;28;20631;-72
2022/12/06 03:39:43;;;;;;;15.43;10.67;;;;;;;3.93;100.00;98230.19;5095991;28;20566;-71
2022/12/06 03:42:11;;;;;;;12.30;10.70;;;;;;;3.96;100.00;98234.28;5095858;28;20425;-71
2022/12/06 03:44:37;;;;;;;12.47;10.63;;;;;;;3.96;100.00;98237.75;5095869;28;20199;-72
2022/12/06 03:47:12;;;;;;;15.50;10.43;;;;;;;3.96;100.00;98239.53;5096363;28;20208;-72
2022/12/06 03:49:46;;;;;;;15.30;11.40;;;;;;;3.93;100.00;98240.69;5095583;28;20710;-71
2022/12/06 03:52:13;;;;;;;13.47;10.93;;;;;;;3.96;100.00;98234.28;5095279;28;20232;-71
2022/12/06 03:54:40;;;;;;;13.33;10.50;;;;;;;3.95;100.00;98237.91;5095627;28;20207;-71
2022/12/06 03:57:07;;;;;;;13.87;10.37;;;;;;;3.96;100.00;98236.91;5095712;28;20206;-72
2022/12/06 03:59:33;;;;;;;13.03;9.90;;;;;;;3.95;100.00;98232.66;5095321;28;20206;-72
2022/12/06 04:02:00;;;;;;;12.67;10.27;;;;;;;3.90;100.00;98238.44;5095296;28;20220;-71
2022/12/06 04:04:26;;;;;;;13.33;10.73;;;;;;;3.86;100.00;98236.31;5095055;28;20214;-72
2022/12/06 04:06:53;;;;;;;13.13;10.23;;;;;;;3.91;100.00;98228.72;5095253;28;20207;-72
2022/12/06 04:12:59;;;;;;;13.60;10.07;;;;;;;3.90;100.00;98225.28;5095043;28;20588;-71
2022/12/06 04:14:49;;;;;;;13.50;10.53;;;;;;;3.91;100.00;98226.91;5094908;28;20208;-72
2022/12/06 04:19:59;;;;;;;12.03;9.83;;;;;;;3.83;100.00;98219.06;5095133;28;20538;-71
2022/12/06 04:25:09;;;;;;;12.57;10.40;;;;;;;3.80;100.00;98213.34;5094940;28;20252;-71
2022/12/06 04:38:41;;;;;;;15.20;9.77;;;;;;;3.81;100.00;98207.91;5094496;28;20255;-71
2022/12/06 04:41:08;;;;;;;11.20;9.10;;;;;;;3.79;100.00;98203.81;5094360;28;20670;-71
2022/12/06 04:43:42;;;;;;;14.60;10.10;;;;;;;3.86;100.00;98207.38;5094255;28;20207;-71
2022/12/06 04:46:10;;;;;;;13.53;10.13;;;;;;;3.83;100.00;98207.72;5094366;28;20187;-71
2022/12/06 04:48:36;;;;;;;12.77;9.60;;;;;;;3.87;100.00;98201.94;5094479;28;20230;-72
2022/12/06 04:51:02;;;;;;;13.30;10.23;;;;;;;3.91;100.00;98199.78;5094106;28;20457;-71
2022/12/06 04:53:29;;;;;;;13.63;10.10;;;;;;;3.89;100.00;98193.91;5094428;28;20231;-71
2022/12/06 04:55:55;;;;;;;12.03;9.47;;;;;;;3.95;100.00;98199.28;5093878;28;20204;-72
2022/12/06 04:58:22;;;;;;;11.53;9.67;;;;;;;3.93;100.00;98192.56;5094448;28;20212;-71
2022/12/06 05:00:54;;;;;;;12.13;9.27;;;;;;;3.88;100.00;98193.06;5094248;28;20226;-71
2022/12/06 05:03:21;;;;;;;15.60;10.07;;;;;;;3.86;100.00;98191.59;5094181;28;20299;-71
2022/12/06 05:05:48;;;;;;;12.13;9.80;;;;;;;3.88;100.00;98198.31;5093864;28;20667;-71
2022/12/06 05:08:14;;;;;;;12.33;9.70;;;;;;;3.87;100.00;98185.34;5093801;28;20227;-71
2022/12/06 05:10:41;;;;;;;12.70;9.87;;;;;;;3.89;100.00;98192.06;5094140;28;20220;-71
2022/12/06 05:13:07;;;;;;;11.83;9.60;;;;;;;3.94;100.00;98189.72;5094051;28;20238;-72
2022/12/06 05:15:34;;;;;;;12.27;9.53;;;;;;;3.99;100.00;98189.22;5093751;28;20633;-72
2022/12/06 05:18:00;;;;;;;11.83;9.83;;;;;;;3.99;100.00;98187.44;5093796;28;20200;-71
2022/12/06 05:20:26;;;;;;;12.13;9.13;;;;;;;3.94;100.00;98192.34;5093518;28;20206;-72
2022/12/06 05:22:53;;;;;;;12.57;9.97;;;;;;;3.95;100.00;98201.91;5093678;28;20203;-71
2022/12/06 05:25:19;;;;;;;13.97;9.23;;;;;;;3.99;100.00;98202.38;5094440;28;20203;-72
2022/12/06 05:27:46;;;;;;;12.77;9.77;;;;;;;3.98;100.00;98198.13;5093363;28;20689;-71
2022/12/06 05:30:12;;;;;;;13.07;9.80;;;;;;;3.98;100.00;98196.28;5093728;28;20208;-72
2022/12/06 05:32:39;;;;;;;10.63;8.70;;;;;;;3.96;100.00;98200.09;5093416;28;20234;-72
2022/12/06 05:35:07;;;;;;;10.93;9.30;;;;;;;3.99;100.00;98195.31;5093400;28;20207;-71
2022/12/06 05:37:33;;;;;;;12.13;9.73;;;;;;;4.03;100.00;98187.88;5093309;28;20207;-71
2022/12/06 05:40:00;;;;;;;13.20;9.47;;;;;;;4.06;100.00;98198.03;5093514;28;20280;-71
2022/12/06 05:42:26;;;;;;;13.30;9.83;;;;;;;4.03;100.00;98198.41;5093070;28;20219;-72
2022/12/06 05:44:52;;;;;;;14.70;10.03;;;;;;;4.03;100.00;98193.94;5093046;28;20693;-71
2022/12/06 05:47:19;;;;;;;11.37;10.17;;;;;;;4.03;100.00;98190.53;5093044;28;20658;-71
2022/12/06 05:49:45;;;;;;;13.40;10.07;;;;;;;4.00;100.00;98189.06;5093513;28;20208;-70
2022/12/06 05:52:11;;;;;;;12.37;9.77;;;;;;;4.04;100.00;98192.16;5092776;28;20238;-71
2022/12/06 05:54:38;;;;;;;11.53;8.90;;;;;;;3.97;100.00;98189.41;5092523;28;20295;-71
2022/12/06 05:57:04;;;;;;;11.63;8.73;;;;;;;3.98;100.00;98185.75;5090540;28;20568;-70
2022/12/06 05:59:30;;;;;;;12.83;10.17;;;;;;;3.97;100.00;98186.75;5091472;28;20210;-69
2022/12/06 06:01:57;;;;;;;12.43;9.27;;;;;;;3.95;100.00;98187.94;5090878;28;20579;-71
2022/12/06 06:04:23;;;;;;;12.23;8.73;;;;;;;3.96;100.00;98195.66;5091000;28;20222;-71
2022/12/06 06:06:50;;;;;;;10.83;9.17;;;;;;;3.98;100.00;98195.47;5091096;28;20208;-72
2022/12/06 06:09:16;;;;;;;9.67;8.13;;;;;;;4.02;100.00;98202.03;5090981;28;20211;-71
2022/12/06 06:11:43;;;;;;;7.10;6.30;;;;;;;4.05;100.00;98197.25;5090861;28;20626;-71
2022/12/06 06:14:09;;;;;;;6.50;5.80;;;;;;;4.06;100.00;98206.75;5091772;28;20211;-72
2022/12/06 06:16:36;;;;;;;7.23;4.97;;;;;;;4.08;100.00;98206.59;5092616;28;20207;-72
2022/12/06 06:19:02;;;;;;;7.03;5.67;;;;;;;4.06;100.00;98193.59;5093133;28;20212;-72
2022/12/06 06:21:28;;;;;;;5.67;5.03;;;;;;;4.08;100.00;98190.81;5092265;28;20224;-72
2022/12/06 06:23:58;;;;;;;5.80;5.30;;;;;;;4.09;100.00;98192.44;5092196;28;20290;-72
2022/12/06 06:26:24;;;;;;;5.03;4.47;;;;;;;4.10;100.00;98197.53;5092612;28;20203;-72
2022/12/06 06:28:51;;;;;;;6.40;5.00;;;;;;;4.06;100.00;98196.25;5092718;28;20560;-72
2022/12/06 06:31:17;;;;;;;5.97;4.80;;;;;;;4.06;100.00;98192.78;5092693;28;20310;-72
2022/12/06 06:33:43;;;;;;;5.63;5.13;;;;;;;4.08;100.00;98196.06;5092590;28;20228;-72
2022/12/06 06:36:10;;;;;;;5.00;4.50;;;;;;;4.08;100.00;98185.53;5092412;28;20200;-72
2022/12/06 06:38:36;;;;;;;4.97;4.47;;;;;;;4.08;100.00;98185.53;5092826;28;20206;-72
2022/12/06 06:41:05;;;;;;;5.40;4.90;;;;;;;4.07;100.00;98174.19;5092453;28;20234;-72
2022/12/06 06:43:32;;;;;;;4.97;4.47;;;;;;;4.10;100.00;98176.47;5092338;28;20648;-72
2022/12/06 06:46:05;;;;;;;5.60;4.97;;;;;;;4.06;100.00;98182.25;5092368;28;20281;-72
2022/12/06 06:48:34;;;;;;;5.90;5.37;;;;;;;3.99;100.00;98189.22;5092856;28;20295;-72
2022/12/06 06:51:19;;;;;;;6.43;5.53;;;;;;;4.08;100.00;98190.81;5092643;28;20231;-70
2022/12/06 06:53:45;;;;;;;6.77;5.33;;;;;;;4.08;100.00;98196.06;5092683;28;20219;-70
2022/12/06 06:56:12;;;;;;;6.27;5.50;;;;;;;4.08;100.00;98194.28;5092525;28;20208;-71
2022/12/06 06:58:39;;;;;;;5.27;4.63;;;;;;;4.11;100.00;98201.00;5092155;28;20204;-72
2022/12/06 07:01:07;;;;;;;6.70;5.30;;;;;;;4.12;100.00;98192.91;5091795;28;20224;-71
2022/12/06 07:03:34;;;;;;;6.87;4.60;;;;;;;4.19;100.00;98198.28;5092379;28;20212;-71
2022/12/06 07:06:04;;;;;;;5.60;4.97;;;;;;;4.18;100.00;98202.75;5091767;28;20684;-71
2022/12/06 07:08:31;;;;;;;5.07;4.60;;;;;;;4.16;100.00;98202.09;5094696;28;20210;-72
2022/12/06 07:10:58;;;;;;;6.33;4.73;;;;;;;4.21;100.00;98201.56;5095746;28;20295;-71
2022/12/06 07:13:26;;;;;;;5.47;4.93;;;;;;;4.20;100.00;98198.13;5095705;28;20238;-71
2022/12/06 07:15:52;;;;;;;5.50;5.00;;;;;;;4.21;100.00;98193.69;5095895;28;20204;-71
2022/12/06 07:18:20;;;;;;;6.10;4.87;;;;;;;4.24;100.00;98193.31;5095704;28;20657;-71
2022/12/06 07:20:47;;;;;;;5.87;5.07;;;;;;;4.19;100.00;98195.66;5095682;28;20219;-71
2022/12/06 07:23:15;;;;;;;6.17;4.87;;;;;;;4.20;100.00;98194.69;5095320;28;20204;-71
2022/12/06 07:25:41;;;;;;;5.73;5.20;;;;;;;4.25;100.00;98197.59;5095578;28;20204;-71
2022/12/06 07:28:07;;;;;;;6.80;5.47;;;;;;;4.23;100.00;98200.41;5095355;28;20203;-71
2022/12/06 07:30:34;;;;;;;6.90;5.47;;;;;;;4.21;100.00;98202.38;5095429;28;20208;-71
2022/12/06 07:33:00;;;;;;;6.20;5.43;;;;;;;4.23;100.00;98204.84;5095014;28;20226;-79
2022/12/06 07:35:26;;;;;;;6.97;5.77;;;;;;;4.24;100.00;98201.19;5095233;28;20566;-71
2022/12/06 07:37:53;;;;;;;5.60;4.90;;;;;;;4.25;100.00;98200.22;5095521;28;20208;-71
2022/12/06 07:40:19;;;;;;;5.50;4.73;;;;;;;4.25;100.00;98208.13;5095318;28;20227;-71
2022/12/06 07:45:44;;;;;;;7.27;4.80;;;;;;;4.29;100.00;98204.16;5012903;28;20203;-70
2022/12/06 07:48:11;;;;;;;5.30;4.80;;;;;;;4.31;100.00;98197.72;5012953;28;20210;-70
2022/12/06 07:50:37;;;;;;;5.67;5.07;;;;;;;4.25;100.00;98200.22;5047988;28;20360;-72
2022/12/06 07:53:03;;;;;;;6.60;4.70;;;;;;;4.30;100.00;98203.16;5094627;28;20214;-70
2022/12/06 07:55:30;;;;;;;5.90;4.73;;;;;;;4.29;100.00;98196.25;5094490;28;20685;-71
2022/12/06 07:57:56;;;;;;;5.77;4.73;;;;;;;4.36;100.00;98199.81;5094754;28;20204;-70
2022/12/06 08:00:22;;;;;;;4.93;4.43;;;;;;;4.33;100.00;98200.16;5094730;28;20685;-70
2022/12/06 08:02:49;;;;;;;4.93;4.43;;;;;;;4.33;100.00;98197.50;5095078;28;20200;-71
2022/12/06 08:05:15;;;;;;;6.13;4.67;;;;;;;4.33;100.00;98194.88;5094614;28;20200;-71
2022/12/06 08:07:42;;;;;;;7.13;5.20;;;;;;;4.37;100.00;98198.81;5094690;28;20685;-71
2022/12/06 08:10:09;;;;;;;5.27;4.67;;;;;;;4.39;100.00;98202.91;5094807;28;20294;-70
2022/12/06 08:12:35;;;;;;;5.20;4.70;;;;;;;4.38;100.00;98205.72;5094766;28;20228;-70
2022/12/06 08:15:01;;;;;;;6.50;5.17;;;;;;;4.40;100.00;98201.09;5092449;28;20689;-71
2022/12/06 08:17:29;;;;;;;5.70;5.03;;;;;;;4.43;100.00;98206.00;5093770;28;20200;-71
2022/12/06 08:19:56;;;;;;;5.70;4.90;;;;;;;4.46;100.00;98195.94;5094127;28;20200;-74
2022/12/06 08:22:22;;;;;;;6.00;5.30;;;;;;;4.54;100.00;98202.94;5094645;28;20216;-74
2022/12/06 08:24:49;;;;;;;7.20;4.93;;;;;;;4.44;100.00;98197.91;5094182;28;20204;-74
2022/12/06 08:27:15;;;;;;;6.80;5.17;;;;;;;4.46;100.00;98205.63;5093788;28;20215;-74
2022/12/06 08:29:43;;;;;;;6.93;5.30;;;;;;;4.39;100.00;98204.72;5094341;28;20203;-74
2022/12/06 08:32:10;;;;;;;7.13;4.73;;;;;;;4.38;100.00;98203.09;5094323;28;20319;-74
2022/12/06 08:34:36;;;;;;;6.20;4.47;;;;;;;4.44;100.00;98199.75;5094203;28;20662;-74
2022/12/06 08:37:04;;;;;;;5.67;5.13;;;;;;;4.44;100.00;98202.38;5094364;28;20310;-74
2022/12/06 08:39:30;;;;;;;5.87;5.27;;;;;;;4.60;100.00;98205.69;5094066;28;20210;-74
2022/12/06 08:42:02;;;;;;;5.50;4.90;;;;;;;4.57;100.00;98208.66;5094198;28;20223;-74
2022/12/06 08:44:30;;;;;;;5.80;5.20;;;;;;;4.53;100.00;98203.94;5094310;28;20595;-74
2022/12/06 08:46:58;;;;;;;5.90;5.30;;;;;;;4.64;100.00;98211.41;5093948;28;20203;-74
2022/12/06 08:49:26;;;;;;;6.03;5.43;;;;;;;4.40;100.00;98207.19;5093895;28;20678;-73
2022/12/06 08:51:53;;;;;;;5.67;5.10;;;;;;;4.32;100.00;98214.31;5093616;28;20237;-74
2022/12/06 08:54:22;;;;;;;6.43;5.53;;;;;;;4.40;100.00;98206.34;5093877;28;20224;-73
2022/12/06 08:56:51;;;;;;;9.00;6.63;;;;;;;4.43;100.00;98206.00;5093597;28;20204;-73
2022/12/06 08:59:18;;;;;;;10.20;6.27;;;;;;;4.46;100.00;98203.00;5093565;28;20547;-73
2022/12/06 09:01:45;;;;;;;6.80;6.00;;;;;;;4.53;100.00;98206.59;5093554;28;20228;-73
2022/12/06 09:04:12;;;;;;;6.97;5.97;;;;;;;4.50;100.00;98213.03;5093316;28;20214;-73
2022/12/06 09:06:41;;;;;;;9.00;6.70;;;;;;;4.66;100.00;98215.50;5093842;28;20199;-73
2022/12/06 09:09:09;;;;;;;7.50;6.77;;;;;;;4.69;100.00;98219.59;5093517;28;20199;-73
2022/12/06 09:11:36;;;;;;;7.67;6.60;;;;;;;4.67;100.00;98222.44;5093700;28;20230;-73
2022/12/06 09:14:03;;;;;;;8.07;7.10;;;;;;;4.78;100.00;98223.78;5093893;28;20230;-73
2022/12/06 09:16:30;;;;;;;7.63;6.83;;;;;;;4.59;100.00;98221.66;5093716;28;20204;-73
2022/12/06 09:18:57;;;;;;;8.63;6.77;;;;;;;4.48;100.00;98230.00;5093674;28;20246;-73
2022/12/06 09:21:29;;;;;;;8.00;7.10;;;;;;;4.46;100.00;98227.53;5093190;28;20659;-73
2022/12/06 09:23:57;;;;;;;7.07;6.37;;;;;;;4.60;100.00;98223.28;5093096;28;20198;-73
2022/12/06 09:26:24;;;;;;;7.27;6.53;;;;;;;4.61;100.00;98224.94;5093332;28;20281;-73
2022/12/06 09:28:51;;;;;;;7.90;6.70;;;;;;;4.70;100.00;98234.44;5093587;28;20200;-73
2022/12/06 09:31:18;;;;;;;7.60;6.80;;;;;;;4.35;100.00;98227.97;5092590;28;20223;-73
2022/12/06 09:33:45;;;;;;;8.90;7.60;;;;;;;4.44;100.00;98226.06;5093479;28;20238;-73
2022/12/06 09:36:21;;;;;;;7.80;7.00;;;;;;;4.49;100.00;98229.81;5094016;28;20207;-73
2022/12/06 09:39:03;;;;;;;8.33;7.33;;;;;;;4.48;100.00;98227.38;5093587;28;20198;-73
2022/12/06 09:41:56;;;;;;;7.90;7.13;;;;;;;4.48;100.00;98224.72;5093308;28;20223;-73
2022/12/06 09:44:58;;;;;;;9.43;7.93;;;;;;;4.45;100.00;98225.91;5093430;28;20276;-74
2022/12/06 09:47:57;;;;;;;9.53;8.47;;;;;;;4.59;100.00;98225.13;5093049;28;20211;-73
2022/12/06 09:50:50;;;;;;;11.43;8.77;;;;;;;4.48;100.00;98222.91;5093068;28;20635;-74
2022/12/06 09:53:29;;;;;;;9.50;8.17;;;;;;;4.53;100.00;98227.66;5092810;28;20613;-73
2022/12/06 09:56:06;;;;;;;9.27;8.27;;;;;;;4.52;100.00;98223.38;5093397;28;20196;-73
2022/12/06 09:59:00;;;;;;;9.37;8.20;;;;;;;4.60;100.00;98225.94;5093348;28;20192;-73
2022/12/06 10:01:38;;;;;;;11.17;9.70;;;;;;;4.54;100.00;98226.66;5092938;28;20228;-73
2022/12/06 10:04:17;;;;;;;13.13;11.10;;;;;;;4.52;100.00;98216.28;5093041;28;20291;-72
2022/12/06 10:07:05;;;;;;;15.77;10.80;;;;;;;4.48;100.00;98217.63;5093182;28;20187;-72
2022/12/06 10:09:39;;;;;;;14.83;12.30;;;;;;;4.43;100.00;98211.28;5093085;28;20206;-72
2022/12/06 10:12:28;;;;;;;13.30;11.90;;;;;;;4.51;100.00;98212.03;5093206;28;20327;-72
2022/12/06 10:15:19;;;;;;;15.00;11.70;;;;;;;4.39;100.00;98212.63;5092667;28;20216;-72
2022/12/06 10:18:14;;;;;;;14.03;12.30;;;;;;;4.41;100.00;98211.44;5093327;28;20188;-73
2022/12/06 10:20:45;;;;;;;13.70;12.00;;;;;;;4.44;100.00;98210.28;5092647;28;20710;-74
2022/12/06 10:23:39;;;;;;;12.20;10.87;;;;;;;4.55;100.00;98212.47;5092836;28;20204;-73
2022/12/06 10:26:28;;;;;;;13.97;11.43;;;;;;;4.48;100.00;98215.00;5076575;28;20192;-73
2022/12/06 10:29:00;;;;;;;11.87;10.23;;;;;;;4.57;100.00;98213.13;5092778;28;20184;-73
2022/12/06 10:31:39;;;;;;;15.30;10.10;;;;;;;4.50;100.00;98209.56;5092688;28;20223;-74
2022/12/06 10:34:21;;;;;;;12.80;9.97;;;;;;;4.56;100.00;98207.03;5092910;28;20308;-74
2022/12/06 10:37:00;;;;;;;12.00;10.30;;;;;;;4.56;100.00;98211.50;5092865;28;20227;-73
2022/12/06 10:39:41;;;;;;;12.00;10.00;;;;;;;4.50;100.00;98202.50;5093485;28;20188;-73
2022/12/06 10:42:26;;;;;;;11.57;10.00;;;;;;;4.45;100.00;98206.66;5092667;28;20224;-73
2022/12/06 10:47:02;;;;;;;11.77;9.60;;;;;;;4.35;100.00;98192.91;5096085;28;20194;-73
2022/12/06 10:47:53;;;;;;;12.03;9.07;;;;;;;4.40;100.00;98196.66;5096010;28;20548;-74
2022/12/06 10:50:28;;;;;;;11.80;9.97;;;;;;;4.44;100.00;98195.28;5096404;28;20215;-74
2022/12/06 10:53:04;;;;;;;12.63;9.60;;;;;;;4.45;100.00;98201.38;5095964;28;20714;-74
2022/12/06 10:55:44;;;;;;;12.13;10.07;;;;;;;4.49;100.00;98194.78;5095985;28;20507;-74
2022/12/06 10:58:40;;;;;;;11.53;10.33;;;;;;;4.51;100.00;98190.13;5096120;28;20626;-74
2022/12/06 11:01:19;;;;;;;10.27;8.90;;;;;;;4.48;100.00;98187.88;5096172;28;20223;-71
2022/12/06 11:04:10;;;;;;;9.43;8.20;;;;;;;4.43;100.00;98187.59;5096082;28;20188;-71
2022/12/06 11:06:53;;;;;;;10.67;8.63;;;;;;;4.37;100.00;98183.00;5078186;28;20192;-71
2022/12/06 11:09:23;;;;;;;9.57;7.83;;;;;;;4.36;100.00;98182.22;5096171;28;20205;-71
2022/12/06 11:11:50;;;;;;;10.07;8.03;;;;;;;4.44;100.00;98183.97;5095763;28;20234;-74
2022/12/06 11:14:29;;;;;;;10.73;8.03;;;;;;;4.38;100.00;98182.03;5095608;28;20232;-70
2022/12/06 11:17:09;;;;;;;10.17;8.10;;;;;;;4.45;100.00;98182.94;5095903;28;20196;-71
2022/12/06 11:19:39;;;;;;;12.70;8.50;;;;;;;4.43;100.00;98177.88;5095402;28;20187;-70
2022/12/06 11:22:19;;;;;;;8.07;7.27;;;;;;;4.44;100.00;98181.31;5095919;28;20265;-71
2022/12/06 11:25:02;;;;;;;9.87;7.20;;;;;;;4.43;100.00;98184.97;5096055;28;20192;-70
2022/12/06 11:27:34;;;;;;;8.00;6.50;;;;;;;4.46;100.00;98181.94;5095225;28;20188;-71
2022/12/06 11:30:03;;;;;;;7.40;6.63;;;;;;;4.57;100.00;98186.81;5095938;28;20188;-71
2022/12/06 11:32:30;;;;;;;7.57;6.43;;;;;;;4.39;100.00;98184.47;5095544;28;20230;-71
2022/12/06 11:35:00;;;;;;;9.20;6.77;;;;;;;4.40;100.00;98180.88;5095564;28;20220;-71
2022/12/06 11:37:30;;;;;;;6.10;5.60;;;;;;;4.33;100.00;98182.56;5095699;28;20207;-71
2022/12/06 11:40:18;;;;;;;6.90;5.63;;;;;;;4.27;100.00;98183.28;5095867;28;20298;-71
2022/12/06 11:42:45;;;;;;;6.90;5.50;;;;;;;4.29;100.00;98183.09;5095565;28;20188;-71
2022/12/06 11:45:37;;;;;;;6.93;5.90;;;;;;;4.26;100.00;98184.28;5095502;28;20200;-71
2022/12/06 11:48:16;;;;;;;7.47;6.33;;;;;;;4.38;100.00;98189.94;5095679;28;20194;-71
2022/12/06 11:50:45;;;;;;;7.03;5.97;;;;;;;4.35;100.00;98182.38;5095399;28;20234;-71
2022/12/06 11:53:21;;;;;;;7.90;6.03;;;;;;;4.42;100.00;98188.56;5095279;28;20216;-71
2022/12/06 11:55:52;;;;;;;7.20;5.93;;;;;;;4.35;100.00;98180.59;5094703;28;20283;-71
2022/12/06 11:58:26;;;;;;;7.90;5.93;;;;;;;4.41;100.00;98181.66;5094728;28;20568;-71
2022/12/06 12:01:02;;;;;;;6.37;5.60;;;;;;;4.56;100.00;98185.19;5095110;28;20234;-71
2022/12/06 12:03:36;;;;;;;5.97;5.33;;;;;;;4.33;100.00;98185.19;5094840;28;20576;-70
2022/12/06 12:06:15;;;;;;;8.07;6.10;;;;;;;4.47;100.00;98186.25;5094565;28;20638;-70